Frank T. Stegbauer — WDE5944 — position and weather

sailwx.info

Track history (hours):
 
Tides and Currents Weather Stations Pressure Air Temp Water Temp Dewpoint Dewpoint Depression Visibility Wind Speed Wind Dir Waves Ship Positions

Frank T. Stegbauer

Owner: SOUTHERN TOWING COMPANY LLC., Memphis, TN. More information available from US FCC via Universal Licensing System and Coast Guard Vessel Documentation Center.

Last reported at 2016-Aug-02 12:17 UTC. Time now 2016-Aug-25 15:02 UTC.
Position N 32°40' W 091°08'.
Warning: this ship's position is 23 days out of date.

Length 35 m; draft 8.6 m.

Type: Tug. MMSI: 367373640.

Date/timePositionNaut miles runAvg speedWind from/ knotsBaromVisibWave heightAir tempDewpointWater temp
2016-Aug-02 12:17N 32°40' W 091°08'3 3.4
2016-Aug-02 11:31N 32°37' W 091°09'0 0.3
2016-Aug-02 10:33N 32°37' W 091°09'0 0.5
2016-Aug-02 09:34N 32°37' W 091°09'4 3.9
2016-Aug-02 08:34N 32°34' W 091°06'4 4.2
2016-Aug-02 07:33N 32°30' W 091°07'4 4.2
2016-Aug-02 06:34N 32°26' W 091°04'5 2.5
2016-Aug-02 04:34N 32°22' W 091°00'4 3.5
2016-Aug-02 03:34N 32°21' W 090°56'3 2.9
2016-Aug-02 02:33N 32°18' W 090°55'4 4.2
2016-Aug-02 01:34N 32°16' W 090°58'4 4.4
2016-Aug-02 00:33N 32°11' W 090°60'4 4.2
2016-Aug-01 23:34N 32°07' W 091°01'4 4.1
2016-Aug-01 22:29N 32°08' W 091°06'5 2.4
2016-Aug-01 20:21N 32°03' W 091°04'  
2016-Jul-26 00:11N 31°58' W 091°11'6 9.4
2016-Jul-25 23:31N 32°00' W 091°05'7 7.2
2016-Jul-25 22:30N 32°08' W 091°04'8 8.4
2016-Jul-25 21:33N 32°14' W 090°59'7 6.6
2016-Jul-25 20:33N 32°21' W 090°57'8 8.2
2016-Jul-25 19:33N 32°26' W 091°04'9 9.0
2016-Jul-25 18:33N 32°35' W 091°08'  
Track history (hours):
 
Tides and Currents Weather Stations Pressure Air Temp Water Temp Dewpoint Dewpoint Depression Visibility Wind Speed Wind Dir Waves Ship Positions

Frank T. Stegbauer

Owner: SOUTHERN TOWING COMPANY LLC., Memphis, TN. More information available from US FCC via Universal Licensing System and Coast Guard Vessel Documentation Center.

Last reported at 2016-Aug-02 12:17 UTC. Time now 2016-Aug-25 15:02 UTC.
Position N 32°40' W 091°08'.
Warning: this ship's position is 23 days out of date.

Length 35 m; draft 8.6 m.

Type: Tug. MMSI: 367373640.

Date/timePositionNaut miles runAvg speedWind from/ knotsBaromVisibWave heightAir tempDewpointWater temp
2016-Aug-02 12:17N 32°40' W 091°08'3 3.4
2016-Aug-02 11:31N 32°37' W 091°09'0 0.3
2016-Aug-02 10:33N 32°37' W 091°09'0 0.5
2016-Aug-02 09:34N 32°37' W 091°09'4 3.9
2016-Aug-02 08:34N 32°34' W 091°06'4 4.2
2016-Aug-02 07:33N 32°30' W 091°07'4 4.2
2016-Aug-02 06:34N 32°26' W 091°04'5 2.5
2016-Aug-02 04:34N 32°22' W 091°00'4 3.5
2016-Aug-02 03:34N 32°21' W 090°56'3 2.9
2016-Aug-02 02:33N 32°18' W 090°55'4 4.2
2016-Aug-02 01:34N 32°16' W 090°58'4 4.4
2016-Aug-02 00:33N 32°11' W 090°60'4 4.2
2016-Aug-01 23:34N 32°07' W 091°01'4 4.1
2016-Aug-01 22:29N 32°08' W 091°06'5 2.4
2016-Aug-01 20:21N 32°03' W 091°04'  
2016-Jul-26 00:11N 31°58' W 091°11'6 9.4
2016-Jul-25 23:31N 32°00' W 091°05'7 7.2
2016-Jul-25 22:30N 32°08' W 091°04'8 8.4
2016-Jul-25 21:33N 32°14' W 090°59'7 6.6
2016-Jul-25 20:33N 32°21' W 090°57'8 8.2
2016-Jul-25 19:33N 32°26' W 091°04'9 9.0
2016-Jul-25 18:33N 32°35' W 091°08'  

Dump ship's entire track history